Terminal Aerodrome Forecast
Issued by NWS

Home | Current Version | Previous Version | Text Only | Print | Product List | Glossary On
Versions: 1 2 3 4 5 6 7 8 9 10 11 12 13 14 15
000
FTUS42 KMLB 161700
TAFTIX
TAF
KTIX 161739Z 1618/1718 02015G23KT P6SM SCT035
     FM170200 05012KT P6SM BKN025
     FM170800 04011KT P6SM OVC015
     FM171500 05017G24KT P6SM SCT015 OVC030=

USA.gov is the U.S. government's official web portal to all federal, state and local government web resources and services.